PTK weather

Oakland County International Airport
Pontiac, Michigan, United States

Public forecast

Using degrees Fahrenheit for public forecast. Weather courtesy of forecast.io.

METAR (pilot weather report)

Retrieved 2019/05/19 23:53 UTC (33 minutes ago):

KPTK 192353Z 18010G17KT 10SM SCT015 BKN025 BKN250 18/16 A2968 RMK AO2 SLP048 60035 T01780156 10206 20167 55015 $

TAF (pilot weather forecast)

Forecast is more than 12 hours old.

Retrieved 2019/05/19 00:22 UTC (1 day ago):

TAF KPTK 192320Z 2000/2024 19012G20KT P6SM SCT040 BKN080 TEMPO 2001/2002 3SM TSRA SCT025 OVC035CB FM200300 24012KT P6SM SCT035 BKN070 FM200900 26014KT P6SM OVC015 FM201300 28015G22KT P6SM OVC015 FM201800 30016G25KT P6SM OVC025